Time;durP1;ratioP1;P1;durP2;ratioP2;P2;SDS_P1;SDS_P2;PMS_P1;PMS_P2;Temp;Humidity;BMP_temperature;BMP_pressure;BME280_temperature;BME280_humidity;BME280_pressure;Samples;Min_cycle;Max_cycle;Signal;HPM_P1;HPM_P2
2022/08/01 00:00:04;;;;;;;18.52;13.13;;;;;;;;;;5051216;28;20203;-65
2022/08/01 00:02:30;;;;;;;16.27;12.75;;;;;;;;;;5051199;28;20248;-65
2022/08/01 00:04:56;;;;;;;18.85;12.85;;;;;;;;;;5051514;28;20231;-65
2022/08/01 00:07:21;;;;;;;18.45;12.18;;;;;;;;;;5050233;28;20210;-64
2022/08/01 00:09:46;;;;;;;22.02;13.57;;;;;;;;;;5049365;28;20569;-65
2022/08/01 00:12:12;;;;;;;15.95;12.48;;;;;;;;;;5050920;28;20242;-65
2022/08/01 00:14:37;;;;;;;18.63;12.50;;;;;;;;;;5051455;28;20253;-65
2022/08/01 00:17:02;;;;;;;19.15;13.45;;;;;;;;;;5031989;28;20219;-65
2022/08/01 00:19:27;;;;;;;18.30;12.95;;;;;;;;;;5051566;28;20545;-65
2022/08/01 00:21:53;;;;;;;16.73;12.00;;;;;;;;;;5051120;28;20674;-65
2022/08/01 00:24:18;;;;;;;16.02;12.63;;;;;;;;;;5049987;28;20306;-65
2022/08/01 00:26:43;;;;;;;17.83;12.60;;;;;;;;;;5051212;28;20249;-65
2022/08/01 00:29:09;;;;;;;18.20;12.82;;;;;;;;;;5050672;28;20250;-65
2022/08/01 00:31:34;;;;;;;20.05;12.60;;;;;;;;;;5050142;28;20223;-66
2022/08/01 00:33:59;;;;;;;20.73;12.25;;;;;;;;;;5045807;28;20267;-64
2022/08/01 00:36:25;;;;;;;16.42;11.07;;;;;;;;;;5038461;28;20219;-64
2022/08/01 00:38:50;;;;;;;16.70;11.82;;;;;;;;;;5036363;28;21133;-65
2022/08/01 00:41:15;;;;;;;14.52;9.75;;;;;;;;;;5027221;28;21174;-64
2022/08/01 00:43:40;;;;;;;17.50;10.00;;;;;;;;;;5032045;28;20220;-64
2022/08/01 00:46:06;;;;;;;16.52;10.07;;;;;;;;;;5023217;28;20706;-65
2022/08/01 00:48:31;;;;;;;12.80;9.70;;;;;;;;;;5033540;28;20215;-64
2022/08/01 00:50:56;;;;;;;14.35;8.90;;;;;;;;;;5027438;28;21081;-64
2022/08/01 00:53:22;;;;;;;11.50;8.43;;;;;;;;;;5024919;28;20211;-65
2022/08/01 00:55:48;;;;;;;13.10;8.48;;;;;;;;;;5023205;28;20219;-65
2022/08/01 00:58:13;;;;;;;14.93;8.65;;;;;;;;;;5035735;28;20220;-65
2022/08/01 01:00:38;;;;;;;11.50;8.50;;;;;;;;;;5020934;28;20261;-64
2022/08/01 01:03:04;;;;;;;13.07;7.80;;;;;;;;;;5028276;28;20596;-65
2022/08/01 01:05:29;;;;;;;10.95;7.78;;;;;;;;;;5017536;28;20234;-65
2022/08/01 01:08:03;;;;;;;13.10;8.00;;;;;;;;;;5021910;28;20206;-65
2022/08/01 01:10:30;;;;;;;11.52;8.43;;;;;;;;;;5025386;28;20260;-65
2022/08/01 01:12:59;;;;;;;11.18;8.32;;;;;;;;;;5008130;28;20230;-65
2022/08/01 01:15:25;;;;;;;14.30;8.45;;;;;;;;;;5014826;28;20289;-64
2022/08/01 01:17:55;;;;;;;12.27;8.00;;;;;;;;;;5026600;28;20219;-64
2022/08/01 01:20:21;;;;;;;12.75;8.18;;;;;;;;;;5027647;28;20216;-64
2022/08/01 01:22:52;;;;;;;12.27;7.40;;;;;;;;;;5030041;28;20678;-64
2022/08/01 01:25:31;;;;;;;10.07;7.72;;;;;;;;;;5031325;28;20227;-64
2022/08/01 01:28:01;;;;;;;13.27;7.93;;;;;;;;;;5021450;28;20301;-64
2022/08/01 01:30:26;;;;;;;11.27;8.05;;;;;;;;;;5019004;28;20235;-63
2022/08/01 01:32:52;;;;;;;14.65;8.15;;;;;;;;;;5029000;28;20672;-63
2022/08/01 01:35:20;;;;;;;14.07;9.18;;;;;;;;;;5013672;28;20223;-64
2022/08/01 01:37:45;;;;;;;13.57;8.82;;;;;;;;;;5012095;28;20221;-64
2022/08/01 01:40:11;;;;;;;14.88;9.85;;;;;;;;;;5019569;28;20219;-64
2022/08/01 01:42:36;;;;;;;15.57;9.93;;;;;;;;;;5012228;28;20226;-64
2022/08/01 01:45:03;;;;;;;13.77;9.82;;;;;;;;;;5029577;28;20305;-63
2022/08/01 01:47:28;;;;;;;15.45;10.25;;;;;;;;;;5019239;28;20219;-64
2022/08/01 01:49:53;;;;;;;16.25;9.85;;;;;;;;;;5028145;28;20276;-65
2022/08/01 01:52:19;;;;;;;14.32;10.18;;;;;;;;;;5033317;28;20268;-65
2022/08/01 01:54:45;;;;;;;15.65;9.65;;;;;;;;;;5029025;28;20215;-65
2022/08/01 01:57:11;;;;;;;15.80;10.70;;;;;;;;;;5018431;28;20226;-65
2022/08/01 01:59:36;;;;;;;18.50;10.50;;;;;;;;;;5011675;28;20211;-65
2022/08/01 02:02:02;;;;;;;17.63;11.48;;;;;;;;;;5007943;28;20253;-64
2022/08/01 02:04:27;;;;;;;18.42;11.40;;;;;;;;;;5017351;28;20698;-65
2022/08/01 02:06:53;;;;;;;17.20;10.98;;;;;;;;;;5023302;28;20299;-64
2022/08/01 02:09:19;;;;;;;16.88;11.55;;;;;;;;;;5025697;28;20223;-65
2022/08/01 02:11:45;;;;;;;17.50;11.32;;;;;;;;;;5018964;28;20238;-65
2022/08/01 02:14:10;;;;;;;17.67;11.35;;;;;;;;;;5014109;28;20568;-65
2022/08/01 02:16:36;;;;;;;17.38;11.18;;;;;;;;;;5017542;28;20282;-64
2022/08/01 02:19:01;;;;;;;14.05;10.23;;;;;;;;;;5030061;28;20219;-65
2022/08/01 02:21:28;;;;;;;19.77;11.68;;;;;;;;;;5012737;28;20319;-65
2022/08/01 02:23:53;;;;;;;15.82;11.35;;;;;;;;;;5019278;28;20250;-65
2022/08/01 02:26:19;;;;;;;17.95;11.50;;;;;;;;;;5005109;28;20342;-64
2022/08/01 02:28:47;;;;;;;16.20;11.43;;;;;;;;;;5035521;28;20203;-65
2022/08/01 02:31:14;;;;;;;16.92;11.75;;;;;;;;;;5018848;28;20220;-65
2022/08/01 02:33:41;;;;;;;17.08;11.40;;;;;;;;;;5023387;28;20255;-65
2022/08/01 02:36:06;;;;;;;17.30;11.13;;;;;;;;;;5030890;28;20212;-66
2022/08/01 02:38:32;;;;;;;15.65;10.55;;;;;;;;;;5038427;28;20223;-65
2022/08/01 02:40:58;;;;;;;15.10;10.07;;;;;;;;;;5022289;28;20224;-65
2022/08/01 02:43:24;;;;;;;16.88;10.13;;;;;;;;;;5008563;28;20859;-64
2022/08/01 02:45:51;;;;;;;17.45;9.55;;;;;;;;;;5024838;28;20223;-65
2022/08/01 02:48:17;;;;;;;16.80;9.93;;;;;;;;;;5031125;28;21022;-65
2022/08/01 02:50:42;;;;;;;14.38;9.98;;;;;;;;;;5030058;28;20838;-65
2022/08/01 02:53:09;;;;;;;15.55;9.80;;;;;;;;;;5031909;28;20222;-65
2022/08/01 02:55:35;;;;;;;16.05;8.75;;;;;;;;;;5035998;28;21162;-64
2022/08/01 02:58:01;;;;;;;14.23;8.48;;;;;;;;;;5021173;28;20219;-65
2022/08/01 03:00:26;;;;;;;12.32;8.15;;;;;;;;;;5024559;28;20796;-65
2022/08/01 03:02:53;;;;;;;11.32;7.75;;;;;;;;;;5021425;28;20212;-64
2022/08/01 03:05:18;;;;;;;12.88;7.78;;;;;;;;;;5010740;28;20239;-64
2022/08/01 03:07:44;;;;;;;11.98;6.05;;;;;;;;;;5004447;28;20216;-65
2022/08/01 03:10:09;;;;;;;10.55;5.15;;;;;;;;;;5010165;28;20224;-64
2022/08/01 03:12:34;;;;;;;8.75;5.18;;;;;;;;;;5009514;28;20240;-64
2022/08/01 03:15:00;;;;;;;6.57;4.80;;;;;;;;;;5021436;28;20219;-65
2022/08/01 03:17:26;;;;;;;8.43;4.97;;;;;;;;;;5017709;28;20220;-64
2022/08/01 03:19:52;;;;;;;9.07;4.95;;;;;;;;;;5020103;28;20222;-64
2022/08/01 03:22:17;;;;;;;6.82;4.07;;;;;;;;;;5020303;28;20224;-65
2022/08/01 03:24:42;;;;;;;7.07;4.55;;;;;;;;;;5020359;28;20243;-64
2022/08/01 03:27:08;;;;;;;6.05;3.90;;;;;;;;;;5014629;28;20311;-64
2022/08/01 03:29:33;;;;;;;7.97;4.28;;;;;;;;;;4997138;28;20238;-65
2022/08/01 03:31:59;;;;;;;6.28;4.13;;;;;;;;;;5002961;28;20216;-65
2022/08/01 03:34:25;;;;;;;6.20;3.90;;;;;;;;;;5013474;28;20234;-64
2022/08/01 03:36:54;;;;;;;5.40;3.88;;;;;;;;;;5009482;28;20306;-64
2022/08/01 03:39:19;;;;;;;6.97;4.07;;;;;;;;;;5020367;28;20219;-63
2022/08/01 03:41:47;;;;;;;6.00;3.95;;;;;;;;;;5020823;28;20218;-64
2022/08/01 03:44:14;;;;;;;6.00;3.83;;;;;;;;;;5010060;28;20618;-64
2022/08/01 03:46:42;;;;;;;7.03;4.00;;;;;;;;;;5016194;28;20292;-65
2022/08/01 03:49:08;;;;;;;6.18;3.25;;;;;;;;;;5004312;28;20235;-64
2022/08/01 03:51:34;;;;;;;5.40;3.40;;;;;;;;;;5009161;28;20274;-64
2022/08/01 03:53:59;;;;;;;58.63;6.28;;;;;;;;;;5006698;28;20219;-66
2022/08/01 03:56:25;;;;;;;114.32;9.40;;;;;;;;;;5012422;28;21126;-65
2022/08/01 03:58:50;;;;;;;10.13;3.47;;;;;;;;;;5009402;28;20225;-65
2022/08/01 04:01:15;;;;;;;5.47;3.00;;;;;;;;;;5004657;28;20224;-64
2022/08/01 04:03:41;;;;;;;28.75;4.80;;;;;;;;;;5018961;28;20227;-64
2022/08/01 04:06:08;;;;;;;40.15;5.07;;;;;;;;;;5025986;28;20709;-65
2022/08/01 04:08:36;;;;;;;11.65;3.63;;;;;;;;;;5010701;28;20219;-65
2022/08/01 04:11:02;;;;;;;42.10;5.60;;;;;;;;;;5023409;28;20908;-65
2022/08/01 04:13:28;;;;;;;5.35;3.30;;;;;;;;;;5009161;28;20560;-66
2022/08/01 04:15:53;;;;;;;4.90;2.65;;;;;;;;;;5018809;28;20891;-66
2022/08/01 04:18:19;;;;;;;7.30;3.58;;;;;;;;;;5025946;28;20311;-65
2022/08/01 04:20:46;;;;;;;4.38;3.00;;;;;;;;;;5020174;28;20208;-65
2022/08/01 04:23:11;;;;;;;4.53;2.80;;;;;;;;;;5035341;28;20922;-61
2022/08/01 04:25:37;;;;;;;5.30;2.63;;;;;;;;;;5005369;28;20628;-64
2022/08/01 04:28:03;;;;;;;4.78;2.85;;;;;;;;;;5020637;28;20245;-64
2022/08/01 04:30:30;;;;;;;4.47;2.88;;;;;;;;;;5013229;28;20239;-64
2022/08/01 04:32:55;;;;;;;5.57;3.00;;;;;;;;;;5017885;28;20249;-64
2022/08/01 04:35:20;;;;;;;4.78;3.13;;;;;;;;;;5035232;28;20227;-64
2022/08/01 04:37:46;;;;;;;4.20;3.10;;;;;;;;;;5029694;28;20305;-65
2022/08/01 04:40:11;;;;;;;4.95;2.83;;;;;;;;;;5000218;28;20974;-65
2022/08/01 04:42:36;;;;;;;5.90;3.33;;;;;;;;;;5014483;28;20435;-65
2022/08/01 04:45:02;;;;;;;7.03;3.40;;;;;;;;;;5017643;28;20449;-64
2022/08/01 04:47:27;;;;;;;7.03;3.17;;;;;;;;;;5018823;28;20298;-66
2022/08/01 04:49:52;;;;;;;26.50;4.45;;;;;;;;;;5021803;28;20233;-65
2022/08/01 04:52:18;;;;;;;5.15;3.30;;;;;;;;;;5003673;28;20285;-66
2022/08/01 04:54:43;;;;;;;131.77;10.90;;;;;;;;;;5022528;28;20571;-65
2022/08/01 04:57:08;;;;;;;16.13;4.40;;;;;;;;;;5042901;28;20616;-65
2022/08/01 04:59:40;;;;;;;6.18;3.33;;;;;;;;;;5059418;28;20210;-67
2022/08/01 05:02:06;;;;;;;5.82;3.40;;;;;;;;;;5041589;28;20210;-66
2022/08/01 05:04:32;;;;;;;4.90;3.25;;;;;;;;;;5059781;28;20226;-65
2022/08/01 05:06:57;;;;;;;5.63;3.15;;;;;;;;;;5059211;28;20207;-66
2022/08/01 05:09:22;;;;;;;5.60;3.28;;;;;;;;;;5059011;28;20230;-66
2022/08/01 05:11:48;;;;;;;4.68;3.25;;;;;;;;;;5057832;28;20211;-65
2022/08/01 05:14:16;;;;;;;5.43;3.28;;;;;;;;;;5059684;28;20558;-67
2022/08/01 05:16:41;;;;;;;20.08;4.40;;;;;;;;;;5059299;28;20265;-65
2022/08/01 05:19:07;;;;;;;7.68;4.18;;;;;;;;;;5057310;28;20210;-66
2022/08/01 05:21:33;;;;;;;6.18;3.90;;;;;;;;;;5059992;28;20748;-64
2022/08/01 05:23:58;;;;;;;6.15;3.60;;;;;;;;;;5059646;28;20226;-66
2022/08/01 05:26:24;;;;;;;7.97;3.83;;;;;;;;;;5062203;28;20631;-67
2022/08/01 05:28:49;;;;;;;5.38;3.60;;;;;;;;;;5067218;28;20214;-68
2022/08/01 05:31:14;;;;;;;13.63;4.05;;;;;;;;;;5058599;28;20284;-68
2022/08/01 05:33:39;;;;;;;5.13;3.55;;;;;;;;;;5057851;28;20740;-67
2022/08/01 05:36:05;;;;;;;5.47;3.72;;;;;;;;;;5059321;28;20206;-68
2022/08/01 05:38:30;;;;;;;15.00;4.72;;;;;;;;;;5059552;28;20218;-69
2022/08/01 05:40:55;;;;;;;18.63;4.32;;;;;;;;;;5057783;28;20213;-67
2022/08/01 05:43:21;;;;;;;7.25;4.00;;;;;;;;;;5053623;28;20214;-67
2022/08/01 05:45:46;;;;;;;6.82;4.28;;;;;;;;;;5059398;28;20214;-65
2022/08/01 05:48:12;;;;;;;6.57;3.95;;;;;;;;;;5059048;28;20214;-65
2022/08/01 05:50:37;;;;;;;6.63;4.45;;;;;;;;;;5058267;28;20219;-67
2022/08/01 05:53:02;;;;;;;6.18;4.30;;;;;;;;;;5053408;28;20215;-66
2022/08/01 05:55:28;;;;;;;10.18;4.72;;;;;;;;;;5063866;28;20678;-68
2022/08/01 05:57:53;;;;;;;6.85;4.25;;;;;;;;;;5049466;28;20237;-69
2022/08/01 06:00:18;;;;;;;4.93;2.90;;;;;;;;;;5048885;28;20741;-67
2022/08/01 06:02:44;;;;;;;3.13;2.22;;;;;;;;;;5048996;28;20617;-66
2022/08/01 06:05:09;;;;;;;2.95;1.70;;;;;;;;;;5048519;28;20227;-66
2022/08/01 06:07:34;;;;;;;2.28;1.70;;;;;;;;;;5051106;28;20666;-68
2022/08/01 06:10:00;;;;;;;1.90;1.58;;;;;;;;;;5053058;28;20223;-68
2022/08/01 06:12:25;;;;;;;2.60;1.58;;;;;;;;;;5053154;28;20226;-68
2022/08/01 06:14:50;;;;;;;2.35;1.48;;;;;;;;;;5052743;28;20233;-67
2022/08/01 06:17:16;;;;;;;1.63;1.33;;;;;;;;;;5052764;28;20606;-68
2022/08/01 06:19:41;;;;;;;1.70;1.35;;;;;;;;;;5053379;28;20218;-67
2022/08/01 06:22:06;;;;;;;1.80;1.17;;;;;;;;;;5052073;28;20237;-67
2022/08/01 06:24:32;;;;;;;4.43;1.30;;;;;;;;;;5021763;28;20256;-68
2022/08/01 06:26:57;;;;;;;2.78;1.30;;;;;;;;;;5053168;28;20293;-67
2022/08/01 06:29:22;;;;;;;2.13;1.20;;;;;;;;;;5051929;28;20222;-66
2022/08/01 06:31:47;;;;;;;1.73;1.20;;;;;;;;;;5053145;28;20290;-67
2022/08/01 06:34:15;;;;;;;2.38;1.20;;;;;;;;;;5052715;28;20250;-67
2022/08/01 06:36:40;;;;;;;2.58;1.38;;;;;;;;;;5052309;28;20211;-68
2022/08/01 06:39:05;;;;;;;1.52;1.00;;;;;;;;;;5052160;28;20705;-68
2022/08/01 06:41:31;;;;;;;2.97;1.40;;;;;;;;;;5053011;28;20211;-68
2022/08/01 06:43:56;;;;;;;3.28;1.50;;;;;;;;;;5052152;28;20729;-67
2022/08/01 06:46:22;;;;;;;3.50;1.40;;;;;;;;;;5052219;28;20213;-67
2022/08/01 06:48:47;;;;;;;2.72;1.52;;;;;;;;;;5052976;28;20211;-68
2022/08/01 06:51:16;;;;;;;3.38;1.77;;;;;;;;;;5051321;28;20615;-67
2022/08/01 06:53:41;;;;;;;3.40;1.75;;;;;;;;;;5052390;28;20221;-69
2022/08/01 06:56:08;;;;;;;6.15;1.98;;;;;;;;;;5052245;28;20223;-68
2022/08/01 06:58:34;;;;;;;3.67;2.05;;;;;;;;;;5052178;28;20322;-69
2022/08/01 07:00:59;;;;;;;43.00;4.82;;;;;;;;;;5052316;28;20215;-68
2022/08/01 07:03:25;;;;;;;4.47;2.00;;;;;;;;;;5034198;28;20261;-70
2022/08/01 07:05:50;;;;;;;3.42;1.90;;;;;;;;;;5051721;28;20223;-67
2022/08/01 07:08:15;;;;;;;14.45;2.08;;;;;;;;;;5051280;28;20208;-66
2022/08/01 07:10:41;;;;;;;3.42;1.80;;;;;;;;;;5051762;28;20273;-69
2022/08/01 07:13:06;;;;;;;2.92;1.80;;;;;;;;;;5051863;28;20219;-68
2022/08/01 07:15:31;;;;;;;2.50;1.75;;;;;;;;;;5052326;28;20526;-68
2022/08/01 07:17:58;;;;;;;4.15;1.70;;;;;;;;;;5059458;28;20705;-69
2022/08/01 07:20:23;;;;;;;3.20;1.67;;;;;;;;;;5061915;28;20536;-68
2022/08/01 07:22:49;;;;;;;5.68;2.00;;;;;;;;;;5052693;28;20610;-67
2022/08/01 07:25:14;;;;;;;2.78;1.30;;;;;;;;;;5051045;28;20215;-69
2022/08/01 07:27:39;;;;;;;3.20;1.63;;;;;;;;;;5051789;28;20211;-69
2022/08/01 07:30:05;;;;;;;3.65;1.67;;;;;;;;;;5055881;28;20233;-69
2022/08/01 07:32:30;;;;;;;21.02;2.75;;;;;;;;;;5058694;28;20215;-67
2022/08/01 07:34:56;;;;;;;5.20;1.90;;;;;;;;;;5056491;28;20223;-67
2022/08/01 07:37:22;;;;;;;5.20;1.90;;;;;;;;;;5056668;28;20263;-68
2022/08/01 07:39:47;;;;;;;4.53;1.92;;;;;;;;;;5057844;28;20293;-68
2022/08/01 07:42:12;;;;;;;15.38;2.50;;;;;;;;;;5058134;28;20229;-68
2022/08/01 07:44:37;;;;;;;4.65;2.20;;;;;;;;;;5052766;28;20567;-68
2022/08/01 07:47:03;;;;;;;4.35;1.67;;;;;;;;;;5045820;28;20221;-67
2022/08/01 07:49:29;;;;;;;3.38;1.90;;;;;;;;;;5054688;28;20545;-66
2022/08/01 07:51:54;;;;;;;5.85;2.00;;;;;;;;;;5056817;28;20219;-70
2022/08/01 07:54:20;;;;;;;5.75;2.05;;;;;;;;;;5042627;28;20210;-70
2022/08/01 07:56:45;;;;;;;5.10;1.90;;;;;;;;;;5047819;28;20585;-70
2022/08/01 07:59:10;;;;;;;4.30;2.08;;;;;;;;;;5046025;28;20218;-69
2022/08/01 08:01:36;;;;;;;3.33;1.77;;;;;;;;;;5040609;28;20247;-70
2022/08/01 08:04:01;;;;;;;4.13;1.80;;;;;;;;;;5036321;28;20220;-69
2022/08/01 08:06:26;;;;;;;3.05;1.80;;;;;;;;;;5055811;28;20214;-71
2022/08/01 08:08:53;;;;;;;4.90;1.92;;;;;;;;;;5032732;28;20751;-70
2022/08/01 08:11:18;;;;;;;5.03;2.03;;;;;;;;;;5050812;28;20222;-71
2022/08/01 08:13:44;;;;;;;5.65;1.75;;;;;;;;;;5029880;28;20223;-72
2022/08/01 08:16:09;;;;;;;8.35;2.10;;;;;;;;;;5053171;28;20222;-67
2022/08/01 08:18:34;;;;;;;7.28;1.88;;;;;;;;;;5061543;28;20218;-69
2022/08/01 08:21:00;;;;;;;8.05;1.80;;;;;;;;;;5060064;28;20210;-69
2022/08/01 08:26:10;;;;;;;6.72;2.10;;;;;;;;;;5057099;28;20241;-68
2022/08/01 08:28:35;;;;;;;11.90;2.20;;;;;;;;;;5057253;28;20674;-68
2022/08/01 08:31:01;;;;;;;4.97;1.70;;;;;;;;;;5050574;28;20234;-68
2022/08/01 08:33:26;;;;;;;3.92;1.50;;;;;;;;;;5048300;28;20237;-68
2022/08/01 08:35:51;;;;;;;5.72;2.10;;;;;;;;;;5055585;28;20257;-69
2022/08/01 08:38:16;;;;;;;5.35;1.77;;;;;;;;;;5056289;28;20203;-69
2022/08/01 08:40:42;;;;;;;4.95;1.65;;;;;;;;;;5056530;28;20214;-69
2022/08/01 08:43:07;;;;;;;4.63;1.60;;;;;;;;;;5057912;28;20592;-68
2022/08/01 08:45:33;;;;;;;12.98;2.50;;;;;;;;;;5053769;28;20326;-68
2022/08/01 08:47:59;;;;;;;7.20;2.30;;;;;;;;;;5050884;28;20758;-68
2022/08/01 08:50:25;;;;;;;15.00;2.58;;;;;;;;;;5031395;28;20226;-70
2022/08/01 08:52:51;;;;;;;19.98;2.85;;;;;;;;;;5049326;28;20670;-69
2022/08/01 08:55:16;;;;;;;7.85;1.90;;;;;;;;;;5045940;28;20243;-69
2022/08/01 08:57:43;;;;;;;5.00;1.92;;;;;;;;;;5049654;28;20203;-69
2022/08/01 09:00:09;;;;;;;3.42;1.80;;;;;;;;;;5050398;28;20302;-69
2022/08/01 09:02:34;;;;;;;6.72;2.20;;;;;;;;;;5050685;28;20671;-69
2022/08/01 09:05:00;;;;;;;5.43;2.10;;;;;;;;;;5049533;28;20310;-69
2022/08/01 09:07:26;;;;;;;6.38;2.65;;;;;;;;;;5032233;28;20679;-69
2022/08/01 09:09:51;;;;;;;6.95;2.40;;;;;;;;;;5050663;28;20219;-69
2022/08/01 09:12:17;;;;;;;6.78;2.45;;;;;;;;;;5031473;28;20253;-68
2022/08/01 09:14:44;;;;;;;5.60;2.15;;;;;;;;;;5050531;28;20203;-68
2022/08/01 09:17:12;;;;;;;6.32;2.45;;;;;;;;;;5050050;28;20225;-68
2022/08/01 09:19:38;;;;;;;6.85;2.30;;;;;;;;;;5049519;28;20215;-68
2022/08/01 09:22:05;;;;;;;5.28;2.40;;;;;;;;;;5049653;28;20576;-68
2022/08/01 09:24:30;;;;;;;5.95;2.40;;;;;;;;;;5049412;28;20704;-68
2022/08/01 09:26:55;;;;;;;6.20;2.60;;;;;;;;;;5050262;28;20219;-67
2022/08/01 09:29:22;;;;;;;7.25;3.10;;;;;;;;;;5049571;28;20253;-67
2022/08/01 09:31:47;;;;;;;7.05;2.80;;;;;;;;;;5049800;28;20226;-67
2022/08/01 09:34:13;;;;;;;6.88;2.90;;;;;;;;;;5031939;28;20215;-68
2022/08/01 09:36:44;;;;;;;7.47;3.00;;;;;;;;;;5049782;28;20310;-68
2022/08/01 09:39:15;;;;;;;7.07;3.20;;;;;;;;;;5049035;28;20273;-72
2022/08/01 09:41:41;;;;;;;7.88;2.80;;;;;;;;;;5049950;28;20206;-69
2022/08/01 09:44:06;;;;;;;5.68;2.80;;;;;;;;;;5050644;28;20700;-69
2022/08/01 09:46:31;;;;;;;7.28;3.00;;;;;;;;;;5056218;28;20229;-71
2022/08/01 09:48:57;;;;;;;6.35;2.60;;;;;;;;;;5060016;28;20217;-69
2022/08/01 09:51:28;;;;;;;7.38;2.95;;;;;;;;;;5056736;28;20210;-71
2022/08/01 09:53:53;;;;;;;6.55;2.72;;;;;;;;;;5025769;28;20222;-72
2022/08/01 09:56:19;;;;;;;10.60;3.33;;;;;;;;;;5033731;28;20305;-71
2022/08/01 09:58:53;;;;;;;7.18;3.30;;;;;;;;;;5052079;28;20215;-72
2022/08/01 10:01:20;;;;;;;7.05;3.13;;;;;;;;;;5050647;28;20272;-71
2022/08/01 10:03:45;;;;;;;77.13;6.95;;;;;;;;;;5034025;28;20209;-70
2022/08/01 10:06:25;;;;;;;12.00;3.28;;;;;;;;;;5050983;28;20294;-70
2022/08/01 10:08:50;;;;;;;8.18;3.13;;;;;;;;;;5050869;28;20755;-69
2022/08/01 10:11:15;;;;;;;15.45;3.13;;;;;;;;;;5051479;28;20215;-69
2022/08/01 10:13:41;;;;;;;7.75;3.35;;;;;;;;;;5033148;28;20590;-72
2022/08/01 10:16:06;;;;;;;15.15;3.72;;;;;;;;;;5051308;28;20219;-72
2022/08/01 10:18:33;;;;;;;9.90;3.50;;;;;;;;;;5052025;28;20233;-71
2022/08/01 10:20:58;;;;;;;14.70;3.55;;;;;;;;;;5033061;28;20219;-70
2022/08/01 10:23:24;;;;;;;8.73;3.78;;;;;;;;;;5033093;28;20294;-72
2022/08/01 10:25:50;;;;;;;12.18;3.42;;;;;;;;;;5058692;28;20671;-66
2022/08/01 10:28:16;;;;;;;11.50;3.90;;;;;;;;;;5055617;28;20207;-67
2022/08/01 10:30:42;;;;;;;7.68;3.20;;;;;;;;;;5040443;28;20694;-71
2022/08/01 10:33:07;;;;;;;10.90;2.90;;;;;;;;;;5057794;28;20207;-68
2022/08/01 10:35:32;;;;;;;7.63;2.60;;;;;;;;;;5038436;28;20211;-67
2022/08/01 10:37:58;;;;;;;10.23;3.00;;;;;;;;;;5035937;28;20278;-68
2022/08/01 10:40:23;;;;;;;11.18;2.80;;;;;;;;;;5057787;28;20218;-68
2022/08/01 10:42:48;;;;;;;10.95;2.88;;;;;;;;;;5057849;28;20219;-68
2022/08/01 10:45:14;;;;;;;10.20;2.80;;;;;;;;;;5038369;28;20222;-67
2022/08/01 10:47:45;;;;;;;10.90;2.40;;;;;;;;;;5058865;28;20210;-67
2022/08/01 10:50:14;;;;;;;11.95;2.95;;;;;;;;;;5039521;28;20223;-67
2022/08/01 10:52:39;;;;;;;9.63;2.60;;;;;;;;;;5037417;28;20211;-67
2022/08/01 10:55:05;;;;;;;14.73;2.53;;;;;;;;;;5043280;28;20261;-67
2022/08/01 10:57:43;;;;;;;9.27;2.42;;;;;;;;;;5061640;28;20884;-66
2022/08/01 11:00:09;;;;;;;10.52;2.42;;;;;;;;;;5060260;28;20210;-67
2022/08/01 11:02:40;;;;;;;6.43;2.22;;;;;;;;;;5060531;28;20218;-67
2022/08/01 11:05:12;;;;;;;13.38;3.03;;;;;;;;;;5059150;28;20227;-67
2022/08/01 11:07:46;;;;;;;10.32;2.28;;;;;;;;;;5041264;28;20863;-68
2022/08/01 11:10:16;;;;;;;15.77;3.00;;;;;;;;;;5060769;28;20702;-66
2022/08/01 11:12:42;;;;;;;11.55;2.75;;;;;;;;;;5040515;28;20207;-67
2022/08/01 11:15:09;;;;;;;21.35;3.33;;;;;;;;;;5059407;28;20237;-67
2022/08/01 11:17:35;;;;;;;9.73;3.00;;;;;;;;;;5059385;28;20203;-66
2022/08/01 11:20:07;;;;;;;84.40;6.50;;;;;;;;;;5061227;28;20207;-67
2022/08/01 11:22:53;;;;;;;10.15;2.15;;;;;;;;;;5061624;28;20249;-66
2022/08/01 11:25:18;;;;;;;7.68;2.15;;;;;;;;;;5055686;28;20218;-66
2022/08/01 11:27:45;;;;;;;10.43;2.22;;;;;;;;;;5060972;28;20195;-66
2022/08/01 11:30:10;;;;;;;12.43;2.58;;;;;;;;;;5060795;28;20219;-67
2022/08/01 11:32:46;;;;;;;11.98;2.50;;;;;;;;;;5058963;28;20253;-67
2022/08/01 11:35:11;;;;;;;8.27;2.00;;;;;;;;;;5059393;28;20237;-67
2022/08/01 11:37:37;;;;;;;9.00;1.95;;;;;;;;;;5043090;28;20614;-67
2022/08/01 11:40:16;;;;;;;6.72;1.77;;;;;;;;;;5040955;28;20215;-68
2022/08/01 11:42:41;;;;;;;7.30;2.25;;;;;;;;;;5052789;28;20207;-67
2022/08/01 11:45:09;;;;;;;15.40;2.15;;;;;;;;;;5012772;28;20262;-67
2022/08/01 11:47:41;;;;;;;6.60;1.50;;;;;;;;;;5041665;28;20202;-67
2022/08/01 11:50:07;;;;;;;9.85;2.30;;;;;;;;;;5057823;28;20711;-67
2022/08/01 11:52:34;;;;;;;9.40;1.67;;;;;;;;;;5039384;28;21342;-66
2022/08/01 11:55:01;;;;;;;20.70;2.40;;;;;;;;;;5056045;28;20289;-64
2022/08/01 11:57:30;;;;;;;8.32;1.35;;;;;;;;;;5059867;28;20309;-66
2022/08/01 11:59:56;;;;;;;6.55;1.55;;;;;;;;;;5058411;28;20686;-65
2022/08/01 12:02:22;;;;;;;56.13;4.57;;;;;;;;;;5057095;28;20226;-65
2022/08/01 12:04:48;;;;;;;11.63;1.70;;;;;;;;;;5060547;28;20222;-67
2022/08/01 12:07:14;;;;;;;22.40;2.67;;;;;;;;;;5054132;28;20217;-69
2022/08/01 12:09:39;;;;;;;7.95;1.60;;;;;;;;;;5053787;28;20222;-70
2022/08/01 12:12:05;;;;;;;9.75;1.70;;;;;;;;;;5053319;28;20225;-67
2022/08/01 12:14:30;;;;;;;13.45;2.35;;;;;;;;;;5052545;28;20298;-67
2022/08/01 12:16:55;;;;;;;6.63;1.45;;;;;;;;;;5053733;28;20708;-66
2022/08/01 12:19:21;;;;;;;7.07;1.65;;;;;;;;;;5035448;28;20215;-70
2022/08/01 12:22:06;;;;;;;6.00;1.40;;;;;;;;;;5052549;28;20235;-69
2022/08/01 12:24:32;;;;;;;6.15;1.38;;;;;;;;;;5033220;28;20761;-69
2022/08/01 12:26:57;;;;;;;11.18;2.17;;;;;;;;;;5033482;28;20255;-69
2022/08/01 12:29:41;;;;;;;7.13;1.45;;;;;;;;;;5032211;28;20303;-69
2022/08/01 12:32:30;;;;;;;8.85;1.60;;;;;;;;;;5031752;28;20223;-67
2022/08/01 12:34:56;;;;;;;7.45;2.00;;;;;;;;;;5032747;28;20215;-68
2022/08/01 12:37:21;;;;;;;6.30;1.45;;;;;;;;;;5032471;28;20211;-69
2022/08/01 12:39:47;;;;;;;6.47;1.77;;;;;;;;;;5033232;28;20681;-68
2022/08/01 12:42:13;;;;;;;8.73;1.58;;;;;;;;;;5031991;28;20231;-68
2022/08/01 12:44:39;;;;;;;6.32;1.40;;;;;;;;;;5032149;28;20208;-68
2022/08/01 12:47:05;;;;;;;5.80;1.50;;;;;;;;;;5031446;28;20639;-67
2022/08/01 12:49:30;;;;;;;8.02;1.67;;;;;;;;;;5032160;28;20226;-68
2022/08/01 12:51:56;;;;;;;7.45;1.48;;;;;;;;;;5014884;28;20215;-68
2022/08/01 12:54:22;;;;;;;7.05;1.70;;;;;;;;;;5031258;28;20208;-69
2022/08/01 12:56:47;;;;;;;5.63;1.50;;;;;;;;;;5032244;28;20215;-70
2022/08/01 12:59:19;;;;;;;5.68;1.52;;;;;;;;;;5032499;28;20218;-70
2022/08/01 13:01:45;;;;;;;15.65;1.83;;;;;;;;;;5025757;28;20307;-69
2022/08/01 13:04:10;;;;;;;9.10;1.83;;;;;;;;;;5015517;28;20246;-69
2022/08/01 13:06:35;;;;;;;7.93;1.77;;;;;;;;;;5012619;28;20254;-69
2022/08/01 13:09:08;;;;;;;10.15;1.70;;;;;;;;;;4998856;28;20930;-69
2022/08/01 13:11:34;;;;;;;7.90;1.70;;;;;;;;;;5010852;28;20228;-70
2022/08/01 13:13:59;;;;;;;8.18;1.80;;;;;;;;;;5005886;28;20302;-69
2022/08/01 13:16:25;;;;;;;9.75;1.60;;;;;;;;;;5024531;28;20230;-71
2022/08/01 13:18:51;;;;;;;7.10;1.80;;;;;;;;;;5018543;28;20220;-69
2022/08/01 13:21:17;;;;;;;12.10;2.08;;;;;;;;;;5020608;28;20227;-67
2022/08/01 13:23:59;;;;;;;10.15;2.55;;;;;;;;;;5025379;28;20222;-68
2022/08/01 13:26:38;;;;;;;7.00;1.92;;;;;;;;;;5018692;28;20216;-68
2022/08/01 13:29:04;;;;;;;8.32;2.00;;;;;;;;;;5001648;28;20224;-69
2022/08/01 13:31:33;;;;;;;8.15;1.80;;;;;;;;;;4998815;28;20290;-69
2022/08/01 13:33:58;;;;;;;7.70;1.75;;;;;;;;;;5023901;28;20225;-69
2022/08/01 13:36:26;;;;;;;11.98;2.33;;;;;;;;;;5015641;28;20209;-70
2022/08/01 13:41:35;;;;;;;14.38;2.15;;;;;;;;;;5012454;28;21346;-70
2022/08/01 13:44:01;;;;;;;13.50;1.95;;;;;;;;;;5020828;28;20690;-66
2022/08/01 13:46:26;;;;;;;10.13;1.80;;;;;;;;;;5007278;28;20817;-67
2022/08/01 13:48:51;;;;;;;9.48;1.80;;;;;;;;;;5003888;28;20294;-69
2022/08/01 13:51:17;;;;;;;6.75;1.80;;;;;;;;;;5011998;28;20224;-69
2022/08/01 13:53:42;;;;;;;6.90;1.60;;;;;;;;;;5007986;28;20224;-68
2022/08/01 13:56:07;;;;;;;6.47;1.60;;;;;;;;;;5002584;28;20224;-68
2022/08/01 13:58:33;;;;;;;7.45;1.80;;;;;;;;;;5022432;28;20224;-68
2022/08/01 14:00:58;;;;;;;9.75;1.90;;;;;;;;;;5025037;28;20262;-68
2022/08/01 14:03:23;;;;;;;9.23;1.60;;;;;;;;;;5009817;28;20216;-68
2022/08/01 14:05:49;;;;;;;7.10;2.15;;;;;;;;;;5020866;28;20231;-69
2022/08/01 14:08:14;;;;;;;7.95;1.73;;;;;;;;;;5015104;28;20754;-68
2022/08/01 14:10:39;;;;;;;7.88;1.58;;;;;;;;;;5017018;28;20228;-67
2022/08/01 14:13:05;;;;;;;7.45;2.03;;;;;;;;;;4996787;28;20542;-67
2022/08/01 14:15:30;;;;;;;7.38;1.90;;;;;;;;;;5011578;28;20314;-68
2022/08/01 14:17:55;;;;;;;5.63;1.55;;;;;;;;;;5004302;28;20863;-68
2022/08/01 14:20:21;;;;;;;8.05;1.40;;;;;;;;;;5024172;28;20212;-67
2022/08/01 14:22:46;;;;;;;12.63;1.73;;;;;;;;;;5013571;28;20223;-68
2022/08/01 14:25:12;;;;;;;8.60;1.73;;;;;;;;;;5022576;28;20216;-67
2022/08/01 14:27:39;;;;;;;6.63;1.73;;;;;;;;;;5021772;28;20204;-67
2022/08/01 14:30:05;;;;;;;5.78;1.70;;;;;;;;;;5011032;28;20232;-67
2022/08/01 14:32:32;;;;;;;8.57;1.52;;;;;;;;;;5012426;28;20298;-68
2022/08/01 14:34:58;;;;;;;9.27;1.80;;;;;;;;;;5008820;28;20282;-67